createdAt,value
2018-07-16T00:00:31.878Z,15.60
2018-07-16T00:02:59.145Z,15.59
2018-07-16T00:05:26.305Z,15.56
2018-07-16T00:07:53.831Z,15.52
2018-07-16T00:10:20.998Z,15.50
2018-07-16T00:12:48.155Z,15.48
2018-07-16T00:15:15.351Z,15.47
2018-07-16T00:17:42.473Z,15.45
2018-07-16T00:20:09.581Z,15.43
2018-07-16T00:22:36.707Z,15.45
2018-07-16T00:25:03.840Z,15.43
2018-07-16T00:27:35.718Z,15.39
2018-07-16T00:30:04.214Z,15.35
2018-07-16T00:32:31.344Z,15.33
2018-07-16T00:34:58.484Z,15.32
2018-07-16T00:37:25.745Z,15.29
2018-07-16T00:39:52.843Z,15.26
2018-07-16T00:42:19.997Z,15.26
2018-07-16T00:44:47.209Z,15.26
2018-07-16T00:47:14.344Z,15.26
2018-07-16T00:49:41.438Z,15.25
2018-07-16T00:52:08.677Z,15.25
2018-07-16T00:54:35.789Z,15.25
2018-07-16T00:57:02.900Z,15.26
2018-07-16T00:59:30.109Z,15.22
2018-07-16T01:01:57.285Z,15.18
2018-07-16T01:04:24.411Z,15.13
2018-07-16T01:06:51.752Z,15.11
2018-07-16T01:09:18.885Z,15.05
2018-07-16T01:11:45.975Z,15.04
2018-07-16T01:14:13.160Z,15.02
2018-07-16T01:16:41.171Z,14.98
2018-07-16T01:19:09.871Z,14.92
2018-07-16T01:21:37.123Z,14.92
2018-07-16T01:24:04.304Z,14.86
2018-07-16T01:26:31.448Z,14.79
2018-07-16T01:28:59.644Z,14.79
2018-07-16T01:31:26.755Z,14.73
2018-07-16T01:33:54.130Z,14.68
2018-07-16T01:36:21.343Z,14.67
2018-07-16T01:38:48.656Z,14.65
2018-07-16T01:41:15.746Z,14.64
2018-07-16T01:43:42.904Z,14.63
2018-07-16T01:46:09.985Z,14.60
2018-07-16T01:48:37.107Z,14.60
2018-07-16T01:51:04.356Z,14.59
2018-07-16T01:53:31.447Z,14.55
2018-07-16T01:55:58.699Z,14.48
2018-07-16T01:58:25.969Z,14.44
2018-07-16T02:00:56.741Z,14.41
2018-07-16T02:03:28.543Z,14.41
2018-07-16T02:05:55.857Z,14.39
2018-07-16T02:08:23.813Z,14.35
2018-07-16T02:10:51.429Z,14.28
2018-07-16T02:13:18.704Z,14.21
2018-07-16T02:15:45.887Z,14.32
2018-07-16T02:18:13.908Z,14.16
2018-07-16T02:20:41.347Z,14.17
2018-07-16T02:23:08.452Z,14.15
2018-07-16T02:25:35.704Z,14.15
2018-07-16T02:28:02.832Z,14.12
2018-07-16T02:30:29.976Z,14.14
2018-07-16T02:32:57.807Z,14.20
2018-07-16T02:35:24.932Z,14.18
2018-07-16T02:37:53.089Z,14.23
2018-07-16T02:40:20.354Z,14.17
2018-07-16T02:42:48.372Z,14.13
2018-07-16T02:45:15.499Z,14.12
2018-07-16T02:47:42.682Z,14.06
2018-07-16T02:50:09.778Z,13.99
2018-07-16T02:52:36.876Z,13.96
2018-07-16T02:55:04.133Z,13.97
2018-07-16T02:57:31.552Z,13.92
2018-07-16T02:59:58.709Z,13.83
2018-07-16T03:02:25.970Z,13.83
2018-07-16T03:04:53.072Z,13.81
2018-07-16T03:07:20.227Z,13.73
2018-07-16T03:09:47.517Z,13.75
2018-07-16T03:12:14.657Z,13.72
2018-07-16T03:14:41.788Z,13.74
2018-07-16T03:17:09.637Z,13.69
2018-07-16T03:19:36.784Z,13.73
2018-07-16T03:22:03.959Z,13.69
2018-07-16T03:24:31.775Z,13.63
2018-07-16T03:26:59.833Z,13.68
2018-07-16T03:29:27.835Z,13.76
2018-07-16T03:31:55.242Z,13.77
2018-07-16T03:34:22.384Z,13.75
2018-07-16T03:36:49.524Z,13.70
2018-07-16T03:39:16.754Z,13.74
2018-07-16T03:41:43.863Z,13.78
2018-07-16T03:44:10.986Z,13.86
2018-07-16T03:46:38.250Z,13.88
2018-07-16T03:49:05.402Z,13.92
2018-07-16T03:51:32.522Z,13.93
2018-07-16T03:53:59.812Z,13.94
2018-07-16T03:56:26.971Z,13.91
2018-07-16T03:58:54.143Z,13.89
2018-07-16T04:01:21.404Z,13.91
2018-07-16T04:03:48.484Z,13.96
2018-07-16T04:06:15.666Z,14.00
2018-07-16T04:08:42.852Z,14.05
2018-07-16T04:11:10.015Z,14.11
2018-07-16T04:13:37.106Z,14.14
2018-07-16T04:16:04.343Z,14.19
2018-07-16T04:18:31.464Z,14.22
2018-07-16T04:20:58.875Z,14.29
2018-07-16T04:23:26.167Z,14.33
2018-07-16T04:25:53.288Z,14.43
2018-07-16T04:28:20.387Z,14.47
2018-07-16T04:30:47.666Z,14.52
2018-07-16T04:33:14.798Z,14.61
2018-07-16T04:35:41.883Z,14.70
2018-07-16T04:38:09.125Z,14.71
2018-07-16T04:40:36.239Z,14.76
2018-07-16T04:43:04.149Z,14.85
2018-07-16T04:45:31.499Z,14.97
2018-07-16T04:47:59.794Z,15.05
2018-07-16T04:50:27.954Z,15.14
2018-07-16T04:52:55.385Z,15.20
2018-07-16T04:55:22.549Z,15.25
2018-07-16T04:57:50.910Z,15.36
2018-07-16T05:00:19.070Z,15.42
2018-07-16T05:02:46.584Z,15.52
2018-07-16T05:05:18.123Z,15.61
2018-07-16T05:07:47.409Z,15.74
2018-07-16T05:10:15.132Z,15.93
2018-07-16T05:12:42.461Z,16.12
2018-07-16T05:15:11.649Z,16.22
2018-07-16T05:17:41.177Z,16.44
2018-07-16T05:20:08.597Z,16.68
2018-07-16T05:22:36.551Z,16.95
2018-07-16T05:25:05.013Z,16.98
2018-07-16T05:27:33.589Z,17.06
2018-07-16T05:30:02.661Z,17.11
2018-07-16T05:32:32.238Z,17.23
2018-07-16T05:35:01.755Z,17.39
2018-07-16T05:37:31.283Z,17.51
2018-07-16T05:39:59.545Z,17.65
2018-07-16T05:42:29.379Z,17.86
2018-07-16T05:45:00.501Z,18.10
2018-07-16T05:47:32.190Z,18.20
2018-07-16T05:50:01.065Z,18.27
2018-07-16T05:52:30.545Z,18.34
2018-07-16T05:54:59.682Z,18.33
2018-07-16T05:57:29.179Z,18.44
2018-07-16T06:00:00.238Z,18.53
2018-07-16T06:02:29.833Z,18.65
2018-07-16T06:04:59.298Z,18.67
2018-07-16T06:07:27.933Z,18.77
2018-07-16T06:09:59.216Z,18.83
2018-07-16T06:12:30.539Z,18.90
2018-07-16T06:14:59.506Z,19.00
2018-07-16T06:17:27.358Z,19.04
2018-07-16T06:19:54.557Z,19.16
2018-07-16T06:39:37.470Z,20.03
2018-07-16T06:42:05.249Z,20.19
2018-07-16T06:44:34.061Z,20.22
2018-07-16T06:47:01.358Z,20.32
2018-07-16T06:49:28.656Z,20.38
2018-07-16T06:51:55.802Z,20.45
2018-07-16T07:11:37.669Z,21.29
2018-07-16T07:14:05.361Z,21.44
2018-07-16T07:16:32.748Z,21.41
2018-07-16T07:18:59.934Z,21.60
2018-07-16T07:21:27.085Z,21.90
2018-07-16T07:32:32.872Z,22.58
2018-07-16T07:35:00.181Z,22.77
2018-07-16T07:37:27.309Z,22.83
2018-07-16T07:39:54.568Z,22.86
2018-07-16T07:42:21.803Z,23.06
2018-07-16T07:44:49.209Z,23.12
2018-07-16T07:47:16.847Z,23.35
2018-07-16T07:49:44.496Z,23.48
2018-07-16T07:52:13.348Z,23.42
2018-07-16T07:54:41.298Z,23.57
2018-07-16T07:57:08.279Z,23.50
2018-07-16T07:59:35.370Z,23.70
2018-07-16T08:02:02.687Z,23.77
2018-07-16T08:04:29.934Z,23.81
2018-07-16T08:07:02.833Z,23.83
2018-07-16T08:09:30.017Z,23.78
2018-07-16T08:11:57.265Z,23.84
2018-07-16T08:14:24.419Z,23.99
2018-07-16T08:16:51.709Z,24.22
2018-07-16T08:19:19.009Z,24.58
2018-07-16T08:21:46.289Z,24.35
2018-07-16T08:24:13.665Z,24.87
2018-07-16T08:26:40.868Z,24.79
2018-07-16T08:29:08.085Z,25.03
2018-07-16T08:31:35.367Z,24.92
2018-07-16T08:34:02.511Z,25.20
2018-07-16T08:36:29.706Z,25.48
2018-07-16T08:38:57.155Z,25.59
2018-07-16T08:41:24.835Z,25.54
2018-07-16T08:43:52.017Z,25.84
2018-07-16T08:46:19.308Z,26.25
2018-07-16T08:48:46.429Z,26.52
2018-07-16T08:51:13.587Z,26.47
2018-07-16T08:53:40.912Z,26.22
2018-07-16T08:56:08.236Z,26.20
2018-07-16T08:58:35.542Z,25.91
2018-07-16T09:01:02.946Z,25.45
2018-07-16T09:03:30.121Z,25.45
2018-07-16T09:06:04.330Z,25.63
2018-07-16T09:08:33.829Z,25.82
2018-07-16T09:11:01.150Z,25.99
2018-07-16T09:13:28.335Z,26.38
2018-07-16T09:15:55.496Z,26.76
2018-07-16T09:18:22.757Z,27.10
2018-07-16T09:20:49.989Z,27.22
2018-07-16T09:23:17.280Z,27.37
2018-07-16T09:25:49.012Z,27.49
2018-07-16T09:28:16.201Z,27.39
2018-07-16T09:30:43.405Z,27.46
2018-07-16T09:33:10.884Z,27.86
2018-07-16T09:35:38.075Z,28.20
2018-07-16T09:38:05.450Z,27.79
2018-07-16T09:40:32.752Z,27.86
2018-07-16T09:42:59.913Z,27.67
2018-07-16T09:45:27.081Z,27.56
2018-07-16T09:47:54.290Z,27.76
2018-07-16T09:50:21.395Z,27.96
2018-07-16T09:52:48.589Z,28.40
2018-07-16T09:55:15.959Z,28.32
2018-07-16T09:57:43.127Z,28.07
2018-07-16T10:00:10.353Z,28.02
2018-07-16T10:02:37.693Z,27.85
2018-07-16T10:05:05.854Z,28.00
2018-07-16T10:07:33.323Z,27.82
2018-07-16T10:10:00.492Z,28.01
2018-07-16T10:12:27.620Z,28.17
2018-07-16T10:14:54.799Z,28.00
2018-07-16T10:17:21.997Z,28.34
2018-07-16T10:19:49.340Z,28.94
2018-07-16T10:22:16.464Z,28.94
2018-07-16T10:24:43.802Z,28.90
2018-07-16T10:27:11.417Z,29.37
2018-07-16T10:29:38.818Z,29.02
2018-07-16T10:32:06.865Z,29.61
2018-07-16T10:34:34.468Z,29.83
2018-07-16T10:37:01.620Z,30.03
2018-07-16T10:39:28.903Z,30.28
2018-07-16T10:41:56.104Z,30.70
2018-07-16T10:44:23.193Z,30.72
2018-07-16T10:46:50.449Z,30.73
2018-07-16T10:49:17.652Z,31.07
2018-07-16T10:51:45.394Z,31.15
2018-07-16T10:54:12.780Z,31.24
2018-07-16T10:56:40.165Z,31.15
2018-07-16T10:59:07.377Z,31.20
2018-07-16T11:01:35.937Z,30.89
2018-07-16T11:04:03.653Z,30.60
2018-07-16T11:06:30.965Z,31.10
2018-07-16T11:08:58.209Z,31.15
2018-07-16T11:11:25.363Z,31.29
2018-07-16T11:13:52.502Z,31.05
2018-07-16T11:16:19.958Z,31.20
2018-07-16T11:18:47.809Z,31.54
2018-07-16T11:21:15.155Z,32.33
2018-07-16T11:23:42.628Z,32.81
2018-07-16T11:26:09.767Z,32.92
2018-07-16T11:28:36.917Z,33.16
2018-07-16T11:31:04.396Z,33.75
2018-07-16T11:33:31.574Z,34.17
2018-07-16T11:35:58.809Z,34.17
2018-07-16T11:38:27.232Z,33.98
2018-07-16T11:40:54.335Z,34.05
2018-07-16T11:43:21.530Z,34.80
2018-07-16T11:45:48.976Z,35.08
2018-07-16T11:48:16.612Z,34.57
2018-07-16T11:50:44.124Z,34.76
2018-07-16T11:53:11.412Z,34.58
2018-07-16T11:55:38.648Z,33.84
2018-07-16T11:58:05.796Z,33.48
2018-07-16T12:00:33.100Z,33.97
2018-07-16T12:03:00.226Z,34.97
2018-07-16T12:05:27.412Z,35.06
2018-07-16T12:07:55.009Z,36.19
2018-07-16T12:10:22.318Z,36.54
2018-07-16T12:12:49.563Z,36.86
2018-07-16T12:15:16.744Z,36.37
2018-07-16T12:17:44.041Z,35.59
2018-07-16T12:20:11.175Z,34.59
2018-07-16T12:22:38.405Z,32.89
2018-07-16T12:25:05.911Z,31.99
2018-07-16T12:27:33.118Z,30.75
2018-07-16T12:30:00.454Z,30.43
2018-07-16T12:32:30.490Z,30.15
2018-07-16T12:34:57.787Z,30.45
2018-07-16T12:37:25.499Z,30.95
2018-07-16T12:39:52.673Z,31.21
2018-07-16T12:42:20.214Z,30.87
2018-07-16T12:44:47.366Z,30.45
2018-07-16T12:47:14.724Z,29.99
2018-07-16T12:49:42.002Z,29.80
2018-07-16T12:52:09.266Z,29.79
2018-07-16T12:54:36.541Z,29.74
2018-07-16T12:57:03.881Z,29.56
2018-07-16T12:59:31.329Z,29.81
2018-07-16T13:01:59.307Z,29.37
2018-07-16T13:04:26.674Z,29.34
2018-07-16T13:06:54.423Z,29.59
2018-07-16T13:09:21.868Z,29.22
2018-07-16T13:11:49.360Z,28.80
2018-07-16T13:14:17.651Z,28.32
2018-07-16T13:16:44.893Z,28.15
2018-07-16T13:19:12.025Z,28.40
2018-07-16T13:21:39.294Z,28.89
2018-07-16T13:24:06.517Z,29.20
2018-07-16T13:26:33.738Z,29.41
2018-07-16T13:29:00.885Z,29.86
2018-07-16T13:31:28.040Z,30.13
2018-07-16T13:33:55.437Z,30.65
2018-07-16T13:36:22.969Z,30.85
2018-07-16T13:38:50.567Z,30.99
2018-07-16T13:41:18.183Z,31.30
2018-07-16T13:43:45.413Z,31.33
2018-07-16T13:46:12.516Z,31.28
2018-07-16T13:48:39.648Z,31.00
2018-07-16T13:51:07.441Z,30.89
2018-07-16T13:53:34.567Z,29.94
2018-07-16T13:56:01.768Z,30.85
2018-07-16T13:58:28.925Z,30.88
2018-07-16T14:00:56.309Z,31.07
2018-07-16T14:03:23.777Z,31.24
2018-07-16T14:05:52.037Z,31.20
2018-07-16T14:08:19.697Z,31.06
2018-07-16T14:10:46.998Z,31.31
2018-07-16T14:13:14.795Z,31.51
2018-07-16T14:15:41.975Z,31.57
2018-07-16T14:18:09.091Z,31.41
2018-07-16T14:20:36.376Z,31.16
2018-07-16T14:23:04.196Z,30.75
2018-07-16T14:25:31.382Z,30.77
2018-07-16T14:27:58.854Z,30.65
2018-07-16T14:30:26.190Z,30.58
2018-07-16T14:32:53.669Z,30.20
2018-07-16T14:35:21.320Z,30.58
2018-07-16T14:37:48.934Z,30.46
2018-07-16T14:40:16.332Z,30.68
2018-07-16T14:42:43.906Z,30.77
2018-07-16T14:45:11.040Z,31.36
2018-07-16T14:47:38.192Z,31.78
2018-07-16T14:50:05.372Z,32.31
2018-07-16T14:52:32.640Z,32.27
2018-07-16T14:54:59.967Z,33.12
2018-07-16T14:57:27.365Z,32.61
2018-07-16T14:59:54.603Z,32.26
2018-07-16T15:02:22.112Z,33.03
2018-07-16T15:04:49.852Z,32.97
2018-07-16T15:07:17.070Z,33.32
2018-07-16T15:09:44.284Z,33.13
2018-07-16T15:12:12.352Z,34.25
2018-07-16T15:14:41.603Z,35.72
2018-07-16T15:17:08.880Z,38.76
2018-07-16T15:19:36.358Z,40.20
2018-07-16T15:22:03.509Z,41.79
2018-07-16T15:24:30.615Z,43.07
2018-07-16T15:26:58.728Z,45.29
2018-07-16T15:29:26.118Z,43.63
2018-07-16T15:31:53.513Z,45.23
2018-07-16T15:34:21.101Z,45.41
2018-07-16T15:36:48.698Z,43.88
2018-07-16T15:39:15.836Z,39.92
2018-07-16T15:41:43.065Z,39.87
2018-07-16T15:44:10.178Z,40.73
2018-07-16T15:46:37.301Z,43.44
2018-07-16T15:49:04.500Z,44.73
2018-07-16T15:51:31.605Z,44.71
2018-07-16T15:53:59.248Z,43.93
2018-07-16T15:56:26.976Z,40.14
2018-07-16T15:58:54.319Z,37.87
2018-07-16T16:01:21.499Z,35.48
2018-07-16T16:03:48.992Z,33.97
2018-07-16T16:06:16.268Z,34.89
2018-07-16T16:08:43.425Z,33.59
2018-07-16T16:11:10.620Z,33.02
2018-07-16T16:13:37.896Z,32.15
2018-07-16T16:16:05.166Z,31.97
2018-07-16T16:18:32.351Z,31.50
2018-07-16T16:20:59.530Z,31.63
2018-07-16T16:23:26.861Z,31.38
2018-07-16T16:25:54.335Z,31.02
2018-07-16T16:28:21.741Z,30.78
2018-07-16T16:30:49.579Z,30.38
2018-07-16T16:33:16.978Z,29.96
2018-07-16T16:35:44.273Z,30.18
2018-07-16T16:38:11.433Z,29.89
2018-07-16T16:40:38.750Z,29.89
2018-07-16T16:43:06.054Z,29.62
2018-07-16T16:45:33.355Z,29.56
2018-07-16T16:48:00.895Z,29.39
2018-07-16T16:50:28.225Z,29.36
2018-07-16T16:52:55.636Z,29.35
2018-07-16T16:55:23.140Z,29.34
2018-07-16T16:57:50.661Z,29.10
2018-07-16T17:00:18.374Z,29.16
2018-07-16T17:02:45.595Z,29.01
2018-07-16T17:05:12.756Z,29.08
2018-07-16T17:07:40.103Z,28.92
2018-07-16T17:10:07.564Z,28.85
2018-07-16T17:12:34.688Z,28.53
2018-07-16T17:15:01.884Z,28.45
2018-07-16T17:17:29.468Z,28.16
2018-07-16T17:19:57.252Z,28.14
2018-07-16T17:22:24.616Z,27.94
2018-07-16T17:24:52.190Z,27.76
2018-07-16T17:27:19.877Z,27.67
2018-07-16T17:29:47.159Z,27.54
2018-07-16T17:32:14.477Z,27.24
2018-07-16T17:34:41.636Z,27.14
2018-07-16T17:37:10.245Z,26.85
2018-07-16T17:39:37.520Z,26.76
2018-07-16T17:42:04.699Z,26.64
2018-07-16T17:44:31.919Z,26.46
2018-07-16T17:46:59.528Z,26.31
2018-07-16T17:49:26.723Z,26.24
2018-07-16T17:51:54.046Z,26.11
2018-07-16T17:54:21.223Z,25.98
2018-07-16T17:56:48.431Z,25.89
2018-07-16T17:59:15.555Z,25.71
2018-07-16T18:01:44.832Z,25.57
2018-07-16T18:04:12.071Z,25.41
2018-07-16T18:06:39.502Z,25.31
2018-07-16T18:09:08.269Z,25.19
2018-07-16T18:11:36.661Z,25.09
2018-07-16T18:14:04.088Z,24.98
2018-07-16T18:16:31.883Z,24.87
2018-07-16T18:19:00.077Z,24.78
2018-07-16T18:21:27.360Z,24.65
2018-07-16T18:23:54.621Z,24.52
2018-07-16T18:26:21.822Z,24.44
2018-07-16T18:28:49.108Z,24.33
2018-07-16T18:31:17.929Z,24.25
2018-07-16T18:33:45.107Z,24.16
2018-07-16T18:36:12.810Z,24.06
2018-07-16T18:38:40.517Z,23.96
2018-07-16T18:41:08.064Z,23.88
2018-07-16T18:43:35.393Z,23.76
2018-07-16T18:46:02.640Z,23.68
2018-07-16T18:48:29.803Z,23.61
2018-07-16T18:50:56.960Z,23.50
2018-07-16T18:53:24.267Z,23.38
2018-07-16T18:55:51.519Z,23.37
2018-07-16T18:58:19.001Z,23.31
2018-07-16T19:00:46.421Z,23.24
2018-07-16T19:03:13.803Z,23.21
2018-07-16T19:05:41.437Z,22.96
2018-07-16T19:08:09.590Z,22.86
2018-07-16T19:10:36.750Z,22.71
2018-07-16T19:13:03.905Z,22.62
2018-07-16T19:15:31.108Z,22.53
2018-07-16T19:17:58.353Z,22.39
2018-07-16T19:20:26.698Z,22.28
2018-07-16T19:22:53.906Z,22.18
2018-07-16T19:25:21.057Z,22.07
2018-07-16T19:27:48.346Z,21.96
2018-07-16T19:30:16.339Z,21.73
2018-07-16T19:32:44.206Z,22.22
2018-07-16T19:35:11.957Z,22.35
2018-07-16T19:37:40.050Z,22.55
2018-07-16T19:40:08.582Z,22.58
2018-07-16T19:42:35.722Z,22.56
2018-07-16T19:45:06.812Z,22.55
2018-07-16T19:47:34.189Z,22.51
2018-07-16T19:50:01.517Z,22.47
2018-07-16T19:52:28.800Z,22.41
2018-07-16T19:54:56.232Z,22.35
2018-07-16T19:57:23.942Z,22.33
2018-07-16T19:59:52.133Z,22.21
2018-07-16T20:02:19.674Z,22.13
2018-07-16T20:04:47.168Z,22.06
2018-07-16T20:07:14.583Z,21.95
2018-07-16T20:09:41.726Z,21.86
2018-07-16T20:12:13.493Z,21.85
2018-07-16T20:14:40.673Z,21.77
2018-07-16T20:17:07.811Z,21.68
2018-07-16T20:19:34.999Z,21.59
2018-07-16T20:22:02.189Z,21.47
2018-07-16T20:24:29.677Z,21.37
2018-07-16T20:26:57.053Z,21.30
2018-07-16T20:29:24.491Z,21.29
2018-07-16T20:31:52.265Z,21.11
2018-07-16T20:34:19.868Z,21.01
2018-07-16T20:36:47.237Z,20.90
2018-07-16T20:39:14.609Z,20.82
2018-07-16T20:41:48.317Z,20.72
2018-07-16T20:44:15.423Z,20.60
2018-07-16T20:46:42.566Z,20.50
2018-07-16T20:49:09.744Z,20.42
2018-07-16T20:51:37.293Z,20.35
2018-07-16T20:54:04.814Z,20.28
2018-07-16T20:56:32.947Z,20.19
2018-07-16T20:59:01.375Z,20.09
2018-07-16T21:01:28.871Z,20.00
2018-07-16T21:03:56.183Z,19.90
2018-07-16T21:06:23.358Z,19.83
2018-07-16T21:08:50.455Z,19.74
2018-07-16T21:11:17.803Z,19.70
2018-07-16T21:13:44.894Z,19.62
2018-07-16T21:16:12.078Z,19.57
2018-07-16T21:18:39.632Z,19.48
2018-07-16T21:21:06.881Z,19.42
2018-07-16T21:23:35.448Z,19.37
2018-07-16T21:26:02.968Z,19.31
2018-07-16T21:28:30.306Z,19.25
2018-07-16T21:30:57.444Z,19.14
2018-07-16T21:33:24.920Z,19.10
2018-07-16T21:35:52.179Z,19.05
2018-07-16T21:38:19.332Z,19.00
2018-07-16T21:40:46.650Z,18.98
2018-07-16T21:43:13.676Z,18.95
2018-07-16T21:45:40.774Z,18.97
2018-07-16T21:48:08.036Z,18.96
2018-07-16T21:50:36.152Z,18.93
2018-07-16T21:53:03.283Z,18.90
2018-07-16T21:55:30.477Z,18.84
2018-07-16T21:57:57.635Z,18.85
2018-07-16T22:00:27.334Z,18.81
2018-07-16T22:02:54.775Z,18.72
2018-07-16T22:05:22.484Z,18.64
2018-07-16T22:07:49.710Z,18.60
2018-07-16T22:10:16.989Z,18.59
2018-07-16T22:12:44.193Z,18.55
2018-07-16T22:15:15.717Z,18.54
2018-07-16T22:17:42.853Z,18.48
2018-07-16T22:20:09.945Z,18.48
2018-07-16T22:22:37.160Z,18.44
2018-07-16T22:25:04.394Z,18.44
2018-07-16T22:27:31.920Z,18.36
2018-07-16T22:29:59.010Z,18.31
2018-07-16T22:32:27.692Z,18.26
2018-07-16T22:34:54.789Z,18.20
2018-07-16T22:37:23.086Z,18.14
2018-07-16T22:39:50.307Z,18.11
2018-07-16T22:42:18.742Z,18.06
2018-07-16T22:44:45.948Z,17.99
2018-07-16T22:47:13.114Z,17.92
2018-07-16T22:49:40.428Z,17.91
2018-07-16T22:52:07.557Z,17.88
2018-07-16T22:54:34.710Z,17.86
2018-07-16T22:57:01.798Z,17.83
2018-07-16T22:59:28.900Z,17.81
2018-07-16T23:01:56.160Z,17.74
2018-07-16T23:04:23.295Z,17.70
2018-07-16T23:06:50.512Z,17.64
2018-07-16T23:09:18.601Z,17.63
2018-07-16T23:11:45.771Z,17.60
2018-07-16T23:14:12.947Z,17.58
2018-07-16T23:16:40.108Z,17.60
2018-07-16T23:19:07.205Z,17.55
2018-07-16T23:21:34.266Z,17.51
2018-07-16T23:24:01.407Z,17.49
2018-07-16T23:26:28.608Z,17.43
2018-07-16T23:28:55.817Z,17.44
2018-07-16T23:31:23.005Z,17.41
2018-07-16T23:33:50.260Z,17.37
2018-07-16T23:36:17.352Z,17.35
2018-07-16T23:38:44.590Z,17.33
2018-07-16T23:41:11.765Z,17.31
2018-07-16T23:43:38.850Z,17.32
2018-07-16T23:46:06.057Z,17.31
2018-07-16T23:48:33.184Z,17.33
2018-07-16T23:51:00.429Z,17.29
2018-07-16T23:53:27.622Z,17.28
2018-07-16T23:55:54.823Z,17.24
2018-07-16T23:58:22.827Z,17.28
